createdAt,value
2017-09-16T00:00:00.752Z,10.60
2017-09-16T00:02:27.318Z,10.80
2017-09-16T00:04:53.709Z,10.80
2017-09-16T00:07:21.286Z,10.70
2017-09-16T00:09:47.683Z,11.30
2017-09-16T00:12:14.102Z,10.50
2017-09-16T00:14:40.613Z,10.80
2017-09-16T00:17:06.976Z,10.70
2017-09-16T00:19:33.631Z,10.70
2017-09-16T00:22:00.135Z,10.60
2017-09-16T00:24:26.574Z,10.70
2017-09-16T00:26:52.954Z,10.70
2017-09-16T00:29:20.329Z,10.60
2017-09-16T00:31:46.674Z,10.70
2017-09-16T00:34:13.055Z,10.70
2017-09-16T00:36:39.436Z,10.70
2017-09-16T00:39:05.902Z,10.70
2017-09-16T00:41:32.301Z,10.70
2017-09-16T00:43:58.775Z,10.60
2017-09-16T00:46:25.152Z,10.60
2017-09-16T00:48:51.737Z,10.30
2017-09-16T00:51:18.073Z,11.00
2017-09-16T00:53:44.753Z,10.60
2017-09-16T00:56:11.122Z,10.50
2017-09-16T00:58:37.317Z,10.50
2017-09-16T01:01:03.616Z,10.50
2017-09-16T01:03:30.524Z,10.60
2017-09-16T01:05:56.785Z,10.50
2017-09-16T01:08:23.136Z,10.60
2017-09-16T01:10:49.458Z,10.60
2017-09-16T01:13:15.615Z,10.60
2017-09-16T01:15:41.808Z,10.50
2017-09-16T01:18:08.029Z,10.90
2017-09-16T01:20:34.209Z,10.60
2017-09-16T01:23:00.381Z,10.60
2017-09-16T01:25:26.553Z,10.50
2017-09-16T01:27:53.534Z,10.60
2017-09-16T01:30:19.725Z,10.60
2017-09-16T01:32:45.893Z,10.90
2017-09-16T01:35:12.818Z,10.60
2017-09-16T01:37:39.000Z,10.60
2017-09-16T01:40:05.331Z,10.70
2017-09-16T01:42:31.758Z,10.50
2017-09-16T01:45:02.906Z,10.50
2017-09-16T01:47:30.009Z,10.50
2017-09-16T01:49:56.328Z,10.50
2017-09-16T01:52:22.677Z,10.50
2017-09-16T01:54:50.897Z,10.50
2017-09-16T01:57:17.202Z,10.50
2017-09-16T01:59:43.538Z,10.50
2017-09-16T02:02:10.615Z,10.40
2017-09-16T02:04:38.545Z,10.30
2017-09-16T02:07:05.626Z,10.30
2017-09-16T02:09:31.953Z,10.30
2017-09-16T02:11:58.217Z,10.40
2017-09-16T02:14:25.358Z,10.30
2017-09-16T02:16:55.516Z,10.40
2017-09-16T02:19:21.897Z,10.40
2017-09-16T02:21:48.273Z,10.50
2017-09-16T02:24:14.631Z,10.40
2017-09-16T02:26:40.969Z,10.30
2017-09-16T02:29:07.671Z,10.30
2017-09-16T02:31:34.002Z,10.20
2017-09-16T02:34:00.172Z,10.10
2017-09-16T02:36:26.349Z,10.10
2017-09-16T02:38:52.519Z,10.10
2017-09-16T02:41:18.778Z,10.50
2017-09-16T02:43:44.920Z,10.10
2017-09-16T02:46:11.078Z,10.60
2017-09-16T02:48:37.237Z,10.20
2017-09-16T02:51:04.167Z,10.10
2017-09-16T02:53:30.313Z,10.10
2017-09-16T02:55:57.190Z,10.20
2017-09-16T02:58:23.389Z,10.20
2017-09-16T03:00:49.563Z,10.00
2017-09-16T03:03:15.706Z,10.20
2017-09-16T03:05:41.847Z,10.20
2017-09-16T03:08:08.795Z,10.10
2017-09-16T03:10:35.675Z,10.10
2017-09-16T03:13:02.009Z,10.10
2017-09-16T03:15:28.447Z,10.10
2017-09-16T03:17:54.714Z,10.60
2017-09-16T03:20:21.142Z,10.40
2017-09-16T03:22:47.486Z,10.10
2017-09-16T03:25:13.814Z,10.10
2017-09-16T03:27:40.131Z,10.00
2017-09-16T03:30:06.462Z,10.10
2017-09-16T03:32:32.834Z,9.90
2017-09-16T03:34:59.187Z,10.00
2017-09-16T03:37:25.533Z,10.00
2017-09-16T03:39:51.923Z,10.00
2017-09-16T03:42:18.316Z,10.00
2017-09-16T03:44:44.678Z,10.00
2017-09-16T03:47:11.794Z,9.90
2017-09-16T03:49:38.130Z,9.90
2017-09-16T03:52:04.480Z,9.90
2017-09-16T03:54:30.823Z,9.80
2017-09-16T03:56:57.914Z,10.00
2017-09-16T03:59:24.357Z,10.00
2017-09-16T04:02:02.925Z,9.90
2017-09-16T04:04:29.256Z,10.00
2017-09-16T04:06:56.312Z,9.90
2017-09-16T04:09:22.659Z,9.80
2017-09-16T04:11:49.165Z,9.90
2017-09-16T04:14:16.283Z,9.90
2017-09-16T04:16:42.613Z,9.90
2017-09-16T04:19:08.946Z,9.90
2017-09-16T04:21:35.316Z,9.90
2017-09-16T04:24:01.498Z,9.90
2017-09-16T04:26:27.629Z,9.90
2017-09-16T04:28:53.771Z,9.90
2017-09-16T04:31:20.767Z,9.70
2017-09-16T04:33:47.050Z,9.80
2017-09-16T04:36:13.206Z,9.80
2017-09-16T04:38:39.402Z,9.30
2017-09-16T04:41:05.537Z,9.80
2017-09-16T04:43:31.681Z,9.80
2017-09-16T04:45:57.817Z,9.90
2017-09-16T04:48:23.981Z,9.80
2017-09-16T04:50:50.925Z,9.70
2017-09-16T04:53:17.052Z,9.70
2017-09-16T04:55:43.204Z,9.80
2017-09-16T04:58:09.330Z,9.80
2017-09-16T05:00:35.493Z,9.80
2017-09-16T05:03:01.638Z,9.80
2017-09-16T05:05:27.950Z,9.80
2017-09-16T05:07:54.280Z,9.80
2017-09-16T05:10:20.598Z,9.90
2017-09-16T05:12:47.073Z,9.80
2017-09-16T05:15:13.405Z,9.90
2017-09-16T05:17:39.754Z,9.80
2017-09-16T05:20:06.079Z,9.70
2017-09-16T05:22:33.133Z,9.70
2017-09-16T05:25:00.220Z,9.70
2017-09-16T05:27:26.546Z,9.70
2017-09-16T05:29:52.898Z,9.60
2017-09-16T05:32:19.241Z,9.70
2017-09-16T05:34:45.549Z,9.70
2017-09-16T05:37:11.881Z,9.80
2017-09-16T05:39:38.224Z,9.90
2017-09-16T05:42:04.582Z,9.80
2017-09-16T05:44:31.669Z,9.70
2017-09-16T05:46:57.990Z,9.70
2017-09-16T05:49:24.333Z,9.70
2017-09-16T05:51:50.677Z,9.80
2017-09-16T05:54:17.078Z,9.70
2017-09-16T05:56:43.420Z,9.60
2017-09-16T05:59:09.786Z,9.60
2017-09-16T06:01:36.237Z,9.60
2017-09-16T06:04:02.625Z,9.60
2017-09-16T06:06:28.853Z,9.40
2017-09-16T06:08:58.015Z,9.60
2017-09-16T06:11:24.176Z,9.70
2017-09-16T06:13:51.149Z,9.60
2017-09-16T06:16:17.358Z,9.60
2017-09-16T06:18:43.656Z,10.10
2017-09-16T06:21:09.809Z,9.90
2017-09-16T06:23:36.188Z,9.80
2017-09-16T06:26:02.418Z,10.00
2017-09-16T06:28:28.582Z,9.90
2017-09-16T06:30:54.745Z,10.10
2017-09-16T06:33:20.995Z,10.00
2017-09-16T06:35:47.178Z,10.10
2017-09-16T06:38:13.362Z,10.10
2017-09-16T06:40:39.551Z,10.10
2017-09-16T06:43:05.818Z,9.80
2017-09-16T06:45:32.010Z,10.20
2017-09-16T06:47:59.257Z,10.20
2017-09-16T06:50:26.329Z,10.20
2017-09-16T06:52:52.753Z,10.20
2017-09-16T06:55:19.065Z,10.30
2017-09-16T06:57:46.171Z,10.50
2017-09-16T07:00:13.379Z,10.50
2017-09-16T07:02:39.749Z,10.50
2017-09-16T07:05:06.839Z,10.70
2017-09-16T07:07:33.202Z,10.70
2017-09-16T07:09:59.574Z,10.80
2017-09-16T07:12:25.955Z,11.30
2017-09-16T07:14:53.180Z,11.00
2017-09-16T07:17:19.618Z,11.00
2017-09-16T07:19:46.742Z,11.10
2017-09-16T07:22:13.183Z,11.10
2017-09-16T07:24:40.254Z,11.30
2017-09-16T07:27:06.625Z,11.30
2017-09-16T07:29:33.869Z,11.40
2017-09-16T07:32:00.277Z,11.40
2017-09-16T07:34:27.004Z,11.60
2017-09-16T07:36:53.370Z,11.70
2017-09-16T07:39:19.841Z,11.70
2017-09-16T07:41:46.181Z,11.70
2017-09-16T07:44:12.522Z,11.70
2017-09-16T07:46:38.881Z,11.70
2017-09-16T07:49:05.977Z,11.90
2017-09-16T07:51:32.457Z,12.30
2017-09-16T07:53:59.322Z,12.10
2017-09-16T07:56:25.496Z,12.10
2017-09-16T07:58:51.665Z,12.40
2017-09-16T08:01:18.570Z,12.20
2017-09-16T08:03:44.771Z,12.10
2017-09-16T08:06:10.959Z,12.30
2017-09-16T08:08:37.156Z,12.60
2017-09-16T08:11:03.381Z,12.50
2017-09-16T08:13:29.609Z,12.50
2017-09-16T08:15:55.797Z,12.60
2017-09-16T08:18:21.996Z,12.70
2017-09-16T08:20:48.188Z,12.90
2017-09-16T08:23:14.365Z,12.90
2017-09-16T08:25:41.487Z,13.30
2017-09-16T08:28:07.693Z,13.30
2017-09-16T08:30:34.294Z,13.50
2017-09-16T08:33:00.664Z,13.40
2017-09-16T08:35:27.051Z,13.80
2017-09-16T08:37:53.441Z,14.60
2017-09-16T08:40:20.576Z,14.60
2017-09-16T08:42:48.282Z,14.60
2017-09-16T08:45:14.733Z,14.30
2017-09-16T08:47:41.120Z,14.30
2017-09-16T08:50:07.493Z,14.20
2017-09-16T08:52:34.772Z,14.30
2017-09-16T08:55:04.289Z,14.20
2017-09-16T08:57:30.809Z,14.20
2017-09-16T08:59:57.170Z,14.30
2017-09-16T09:02:23.675Z,14.30
2017-09-16T09:04:50.163Z,14.60
2017-09-16T09:07:16.578Z,14.20
2017-09-16T09:09:42.750Z,14.40
2017-09-16T09:12:08.956Z,14.30
2017-09-16T09:14:35.185Z,14.50
2017-09-16T09:17:02.431Z,14.70
2017-09-16T09:19:28.666Z,14.40
2017-09-16T09:21:55.126Z,14.80
2017-09-16T09:24:22.151Z,14.70
2017-09-16T09:26:49.093Z,14.80
2017-09-16T09:29:16.046Z,14.70
2017-09-16T09:31:42.982Z,14.60
2017-09-16T09:34:09.130Z,14.70
2017-09-16T09:36:35.305Z,14.60
2017-09-16T09:39:02.275Z,15.00
2017-09-16T09:41:28.450Z,15.00
2017-09-16T09:43:55.346Z,15.10
2017-09-16T09:46:23.660Z,15.00
2017-09-16T09:48:49.822Z,15.00
2017-09-16T09:51:16.711Z,15.10
2017-09-16T09:53:43.103Z,15.00
2017-09-16T09:56:10.216Z,15.20
2017-09-16T09:58:36.634Z,15.20
2017-09-16T10:01:03.729Z,15.40
2017-09-16T10:03:30.174Z,15.40
2017-09-16T10:05:57.262Z,15.40
2017-09-16T10:08:23.642Z,15.40
2017-09-16T10:10:50.735Z,15.50
2017-09-16T10:13:17.066Z,15.50
2017-09-16T10:15:44.277Z,16.00
2017-09-16T10:18:11.515Z,16.10
2017-09-16T10:20:38.831Z,15.70
2017-09-16T10:23:05.462Z,15.70
2017-09-16T10:25:32.012Z,15.70
2017-09-16T10:27:58.442Z,15.60
2017-09-16T10:30:25.503Z,16.10
2017-09-16T10:35:23.235Z,16.30
2017-09-16T10:37:49.581Z,16.70
2017-09-16T10:40:15.930Z,16.30
2017-09-16T10:42:42.387Z,16.20
2017-09-16T10:45:08.731Z,16.40
2017-09-16T10:47:35.129Z,16.50
2017-09-16T10:50:02.603Z,16.90
2017-09-16T10:52:29.803Z,16.90
2017-09-16T10:54:56.142Z,16.90
2017-09-16T10:57:22.736Z,16.70
2017-09-16T10:59:49.192Z,16.70
2017-09-16T11:02:15.607Z,16.80
2017-09-16T11:04:41.943Z,16.90
2017-09-16T11:07:08.302Z,16.50
2017-09-16T11:09:35.482Z,16.90
2017-09-16T11:12:01.961Z,16.80
2017-09-16T11:14:29.117Z,17.10
2017-09-16T11:16:55.524Z,17.10
2017-09-16T11:19:22.744Z,17.20
2017-09-16T11:21:49.819Z,17.10
2017-09-16T11:24:16.218Z,17.10
2017-09-16T11:26:42.568Z,17.10
2017-09-16T11:29:08.926Z,17.20
2017-09-16T11:31:35.310Z,17.60
2017-09-16T11:34:01.676Z,17.00
2017-09-16T11:36:28.729Z,16.90
2017-09-16T11:38:55.067Z,17.10
2017-09-16T11:41:22.369Z,16.90
2017-09-16T11:43:49.489Z,16.90
2017-09-16T11:46:15.815Z,16.90
2017-09-16T11:48:42.250Z,17.00
2017-09-16T11:51:09.329Z,17.10
2017-09-16T11:53:35.661Z,17.10
2017-09-16T11:56:02.658Z,17.00
2017-09-16T11:58:28.879Z,17.00
2017-09-16T12:00:55.151Z,17.20
2017-09-16T12:03:21.336Z,17.50
2017-09-16T12:05:48.385Z,17.50
2017-09-16T12:08:14.560Z,17.50
2017-09-16T12:10:40.721Z,17.30
2017-09-16T12:13:07.685Z,17.50
2017-09-16T12:15:33.928Z,17.50
2017-09-16T12:18:00.908Z,17.50
2017-09-16T12:20:27.114Z,17.50
2017-09-16T12:22:53.359Z,17.40
2017-09-16T12:25:19.514Z,17.50
2017-09-16T12:27:45.683Z,17.40
2017-09-16T12:30:11.936Z,17.40
2017-09-16T12:32:38.196Z,17.20
2017-09-16T12:35:07.208Z,17.30
2017-09-16T12:37:34.171Z,17.10
2017-09-16T12:40:00.447Z,17.10
2017-09-16T12:42:26.606Z,17.10
2017-09-16T12:44:56.110Z,17.30
2017-09-16T12:47:22.419Z,17.20
2017-09-16T12:49:48.555Z,17.00
2017-09-16T12:52:14.681Z,17.00
2017-09-16T12:54:44.482Z,16.80
2017-09-16T12:57:10.698Z,16.90
2017-09-16T12:59:37.024Z,16.90
2017-09-16T13:02:03.920Z,17.30
2017-09-16T13:04:31.060Z,17.20
2017-09-16T13:09:39.407Z,17.50
2017-09-16T13:12:06.960Z,17.00
2017-09-16T13:14:33.906Z,17.60
2017-09-16T13:17:00.085Z,17.50
2017-09-16T13:19:26.389Z,17.60
2017-09-16T13:21:52.555Z,17.60
2017-09-16T13:24:18.848Z,17.70
2017-09-16T13:26:45.009Z,17.80
2017-09-16T13:29:11.909Z,17.70
2017-09-16T13:31:38.081Z,17.70
2017-09-16T13:34:04.237Z,17.80
2017-09-16T13:36:31.122Z,17.60
2017-09-16T13:38:57.265Z,17.50
2017-09-16T13:41:23.400Z,17.50
2017-09-16T13:43:49.546Z,17.30
2017-09-16T13:46:15.755Z,17.30
2017-09-16T13:51:13.857Z,17.50
2017-09-16T13:53:40.737Z,17.60
2017-09-16T13:56:07.621Z,17.70
2017-09-16T13:58:33.754Z,17.60
2017-09-16T14:00:59.885Z,17.50
2017-09-16T14:03:26.102Z,17.60
2017-09-16T14:08:23.575Z,17.50
2017-09-16T14:10:49.703Z,17.50
2017-09-16T14:13:15.856Z,17.60
2017-09-16T14:15:41.978Z,17.80
2017-09-16T14:18:08.872Z,17.70
2017-09-16T14:20:35.009Z,17.70
2017-09-16T14:23:01.155Z,17.80
2017-09-16T14:25:27.766Z,17.60
2017-09-16T14:27:54.086Z,17.50
2017-09-16T14:30:20.415Z,17.20
2017-09-16T14:32:46.752Z,17.70
2017-09-16T14:35:13.567Z,17.70
2017-09-16T14:37:41.176Z,17.80
2017-09-16T14:40:09.370Z,17.60
2017-09-16T14:42:36.664Z,17.70
2017-09-16T14:45:02.998Z,17.80
2017-09-16T14:47:29.342Z,18.00
2017-09-16T14:49:55.740Z,17.80
2017-09-16T14:52:23.223Z,17.90
2017-09-16T14:54:49.565Z,18.00
2017-09-16T14:57:15.856Z,17.90
2017-09-16T14:59:42.214Z,18.00
2017-09-16T15:02:08.685Z,17.90
2017-09-16T15:04:36.634Z,17.80
2017-09-16T15:07:03.170Z,17.40
2017-09-16T15:09:29.617Z,17.30
2017-09-16T15:11:56.687Z,17.60
2017-09-16T15:14:23.026Z,17.60
2017-09-16T15:16:49.364Z,17.50
2017-09-16T15:19:16.533Z,17.40
2017-09-16T15:21:42.850Z,17.40
2017-09-16T15:24:09.255Z,17.40
2017-09-16T15:26:35.670Z,17.30
2017-09-16T15:29:02.053Z,17.20
2017-09-16T15:31:28.461Z,17.10
2017-09-16T15:33:55.576Z,17.10
2017-09-16T15:36:21.933Z,17.00
2017-09-16T15:38:48.404Z,17.00
2017-09-16T15:41:14.768Z,17.00
2017-09-16T15:43:41.094Z,17.00
2017-09-16T15:46:07.462Z,17.10
2017-09-16T15:48:35.614Z,17.30
2017-09-16T15:51:01.803Z,17.30
2017-09-16T15:53:27.992Z,17.70
2017-09-16T15:55:54.342Z,17.20
2017-09-16T15:58:20.520Z,17.00
2017-09-16T16:00:46.655Z,16.80
2017-09-16T16:03:12.794Z,16.80
2017-09-16T16:05:38.963Z,16.90
2017-09-16T16:08:05.547Z,17.10
2017-09-16T16:10:32.681Z,17.00
2017-09-16T16:12:59.562Z,16.80
2017-09-16T16:17:58.829Z,16.70
2017-09-16T16:20:24.977Z,16.50
2017-09-16T16:22:51.139Z,17.00
2017-09-16T16:25:17.285Z,16.50
2017-09-16T16:27:44.230Z,16.80
2017-09-16T16:30:11.174Z,16.70
2017-09-16T16:32:37.327Z,16.70
2017-09-16T16:35:03.676Z,16.70
2017-09-16T16:37:30.031Z,16.70
2017-09-16T16:39:56.374Z,16.80
2017-09-16T16:42:23.461Z,16.50
2017-09-16T16:44:49.905Z,16.50
2017-09-16T16:47:17.088Z,16.40
2017-09-16T16:49:43.471Z,16.40
2017-09-16T16:52:09.833Z,16.30
2017-09-16T16:54:36.175Z,16.20
2017-09-16T16:57:02.582Z,16.20
2017-09-16T16:59:29.803Z,16.10
2017-09-16T17:01:56.198Z,16.10
2017-09-16T17:04:23.013Z,16.20
2017-09-16T17:06:49.549Z,16.10
2017-09-16T17:09:15.980Z,16.00
2017-09-16T17:11:42.615Z,16.00
2017-09-16T17:14:09.136Z,15.90
2017-09-16T17:16:35.479Z,15.80
2017-09-16T17:19:01.855Z,15.70
2017-09-16T17:21:28.244Z,15.60
2017-09-16T17:23:54.635Z,15.50
2017-09-16T17:26:21.007Z,15.50
2017-09-16T17:28:47.345Z,15.30
2017-09-16T17:31:13.695Z,15.30
2017-09-16T17:33:39.857Z,15.20
2017-09-16T17:36:06.085Z,15.20
2017-09-16T17:38:32.963Z,15.30
2017-09-16T17:40:59.181Z,15.30
2017-09-16T17:43:25.363Z,15.10
2017-09-16T17:45:51.622Z,15.10
2017-09-16T17:48:17.781Z,15.10
2017-09-16T17:50:44.668Z,14.90
2017-09-16T17:53:10.929Z,15.10
2017-09-16T17:55:37.058Z,14.70
2017-09-16T17:58:03.241Z,14.70
2017-09-16T18:00:29.381Z,15.00
2017-09-16T18:02:55.529Z,15.10
2017-09-16T18:05:21.686Z,14.80
2017-09-16T18:07:48.622Z,14.70
2017-09-16T18:10:14.760Z,14.70
2017-09-16T18:12:40.954Z,14.80
2017-09-16T18:15:07.110Z,14.40
2017-09-16T18:17:33.267Z,14.60
2017-09-16T18:19:59.482Z,14.50
2017-09-16T18:22:25.619Z,14.70
2017-09-16T18:24:51.755Z,14.20
2017-09-16T18:27:17.882Z,14.10
2017-09-16T18:29:44.753Z,13.70
2017-09-16T18:32:10.898Z,13.70
2017-09-16T18:34:37.062Z,13.70
2017-09-16T18:37:03.365Z,13.50
2017-09-16T18:39:29.698Z,13.40
2017-09-16T18:41:56.013Z,13.30
2017-09-16T18:44:22.362Z,13.30
2017-09-16T18:46:48.751Z,13.10
2017-09-16T18:49:15.104Z,13.10
2017-09-16T18:51:41.471Z,13.20
2017-09-16T18:54:10.898Z,13.30
2017-09-16T18:56:37.259Z,13.30
2017-09-16T18:59:03.562Z,13.30
2017-09-16T19:01:33.244Z,13.20
2017-09-16T19:04:00.343Z,13.10
2017-09-16T19:06:26.740Z,13.10
2017-09-16T19:08:53.113Z,13.10
2017-09-16T19:11:19.431Z,13.10
2017-09-16T19:13:45.866Z,13.20
2017-09-16T19:16:12.271Z,13.40
2017-09-16T19:18:39.372Z,13.30
2017-09-16T19:21:05.701Z,13.30
2017-09-16T19:23:32.929Z,13.30
2017-09-16T19:25:59.440Z,13.60
2017-09-16T19:28:25.835Z,13.40
2017-09-16T19:30:53.741Z,13.40
2017-09-16T19:33:20.862Z,13.30
2017-09-16T19:35:47.228Z,13.60
2017-09-16T19:38:14.335Z,13.30
2017-09-16T19:40:43.852Z,13.70
2017-09-16T19:43:10.074Z,12.80
2017-09-16T19:45:36.253Z,13.10
2017-09-16T19:48:02.478Z,13.00
2017-09-16T19:50:32.679Z,13.00
2017-09-16T19:52:59.052Z,13.10
2017-09-16T19:55:25.422Z,13.10
2017-09-16T19:57:52.916Z,13.00
2017-09-16T20:00:22.763Z,13.00
2017-09-16T20:02:49.303Z,13.00
2017-09-16T20:05:15.993Z,13.00
2017-09-16T20:07:50.631Z,13.00
2017-09-16T20:10:21.462Z,13.10
2017-09-16T20:12:47.811Z,13.20
2017-09-16T20:15:14.935Z,13.20
2017-09-16T20:17:41.297Z,13.10
2017-09-16T20:20:07.672Z,13.10
2017-09-16T20:22:34.043Z,13.10
2017-09-16T20:25:00.489Z,13.00
2017-09-16T20:27:26.849Z,13.10
2017-09-16T20:29:53.203Z,13.10
2017-09-16T20:32:19.551Z,12.90
2017-09-16T20:34:45.880Z,12.70
2017-09-16T20:37:12.946Z,12.60
2017-09-16T20:39:39.271Z,12.60
2017-09-16T20:42:05.749Z,12.50
2017-09-16T20:44:32.083Z,12.50
2017-09-16T20:46:58.477Z,12.50
2017-09-16T20:49:24.954Z,12.70
2017-09-16T20:51:51.313Z,12.40
2017-09-16T20:54:17.678Z,12.30
2017-09-16T20:56:44.672Z,12.30
2017-09-16T20:59:11.109Z,12.30
2017-09-16T21:01:37.329Z,12.30
2017-09-16T21:04:03.498Z,12.20
2017-09-16T21:06:29.657Z,12.10
2017-09-16T21:08:55.847Z,12.10
2017-09-16T21:11:21.984Z,12.10
2017-09-16T21:13:48.150Z,12.00
2017-09-16T21:16:15.042Z,11.90
2017-09-16T21:18:41.274Z,11.90
2017-09-16T21:21:07.447Z,12.00
2017-09-16T21:23:33.615Z,11.90
2017-09-16T21:25:59.764Z,12.00
2017-09-16T21:28:25.961Z,11.70
2017-09-16T21:30:52.123Z,11.60
2017-09-16T21:33:18.315Z,11.50
2017-09-16T21:35:44.542Z,11.60
2017-09-16T21:38:10.754Z,11.50
2017-09-16T21:40:37.105Z,11.70
2017-09-16T21:43:03.454Z,11.40
2017-09-16T21:45:29.839Z,11.40
2017-09-16T21:47:56.233Z,11.30
2017-09-16T21:50:22.639Z,11.30
2017-09-16T21:52:53.987Z,11.20
2017-09-16T21:55:21.086Z,11.10
2017-09-16T21:57:47.541Z,11.20
2017-09-16T22:00:14.001Z,11.10
2017-09-16T22:02:40.377Z,11.00
2017-09-16T22:05:06.779Z,11.00
2017-09-16T22:07:33.910Z,10.80
2017-09-16T22:10:00.289Z,11.10
2017-09-16T22:12:26.641Z,10.80
2017-09-16T22:14:53.007Z,10.80
2017-09-16T22:17:19.353Z,10.80
2017-09-16T22:19:45.714Z,10.70
2017-09-16T22:22:12.113Z,10.90
2017-09-16T22:24:38.442Z,10.80
2017-09-16T22:27:04.810Z,10.60
2017-09-16T22:29:31.246Z,10.60
2017-09-16T22:31:57.579Z,10.60
2017-09-16T22:34:23.983Z,10.50
2017-09-16T22:36:50.354Z,10.50
2017-09-16T22:39:16.848Z,10.50
2017-09-16T22:41:43.220Z,10.80
2017-09-16T22:44:09.649Z,10.50
2017-09-16T22:46:36.427Z,10.40
2017-09-16T22:49:02.775Z,10.30
2017-09-16T22:51:29.844Z,10.20
2017-09-16T22:53:56.193Z,10.20
2017-09-16T22:56:22.520Z,10.40
2017-09-16T22:58:48.837Z,10.20
2017-09-16T23:01:15.173Z,10.20
2017-09-16T23:03:41.522Z,10.10
2017-09-16T23:06:07.941Z,10.10
2017-09-16T23:08:34.181Z,10.10
2017-09-16T23:11:00.328Z,10.10
2017-09-16T23:13:26.469Z,10.10
2017-09-16T23:15:52.898Z,10.10
2017-09-16T23:18:19.054Z,10.00
2017-09-16T23:20:45.217Z,10.00
2017-09-16T23:23:11.453Z,10.40
2017-09-16T23:25:37.664Z,10.00
2017-09-16T23:28:03.915Z,9.90
2017-09-16T23:30:30.107Z,9.90
2017-09-16T23:32:57.056Z,9.90
2017-09-16T23:35:23.230Z,9.80
2017-09-16T23:37:49.467Z,9.90
2017-09-16T23:40:15.657Z,10.10
2017-09-16T23:42:41.934Z,10.00
2017-09-16T23:45:08.185Z,9.90
2017-09-16T23:47:34.589Z,9.90
2017-09-16T23:50:01.641Z,10.00
2017-09-16T23:52:28.070Z,9.90
2017-09-16T23:54:54.429Z,10.00
2017-09-16T23:57:21.115Z,10.00
2017-09-16T23:59:47.562Z,10.00
